createdAt,value
2018-05-04T00:01:05.944Z,66.27
2018-05-04T00:07:10.307Z,66.72
2018-05-04T00:13:15.409Z,67.43
2018-05-04T00:19:20.099Z,67.85
2018-05-04T00:25:24.450Z,67.70
2018-05-04T00:31:29.660Z,67.64
2018-05-04T00:37:33.997Z,69.24
2018-05-04T00:43:39.133Z,69.06
2018-05-04T00:49:43.568Z,69.09
2018-05-04T00:55:47.925Z,69.25
2018-05-04T01:01:52.661Z,69.21
2018-05-04T01:07:57.008Z,69.60
2018-05-04T01:14:02.132Z,69.53
2018-05-04T01:20:06.485Z,69.81
2018-05-04T01:26:10.909Z,69.98
2018-05-04T01:32:15.282Z,70.10
2018-05-04T01:38:20.451Z,70.93
2018-05-04T01:44:25.007Z,70.93
2018-05-04T01:50:29.447Z,70.84
2018-05-04T01:56:33.878Z,70.75
2018-05-04T02:02:38.327Z,71.27
2018-05-04T02:08:43.554Z,71.49
2018-05-04T02:14:47.917Z,72.19
2018-05-04T02:20:53.058Z,72.51
2018-05-04T02:26:57.574Z,73.46
2018-05-04T02:33:02.783Z,73.52
2018-05-04T02:39:07.153Z,73.70
2018-05-04T02:45:11.614Z,73.59
2018-05-04T02:51:16.895Z,73.64
2018-05-04T02:57:22.015Z,74.09
2018-05-04T03:03:27.152Z,73.95
2018-05-04T03:09:31.503Z,74.28
2018-05-04T03:15:35.853Z,74.79
2018-05-04T03:21:41.059Z,75.21
2018-05-04T03:27:45.424Z,74.46
2018-05-04T03:33:49.920Z,75.20
2018-05-04T03:39:54.429Z,75.34
2018-05-04T03:45:58.852Z,75.80
2018-05-04T03:52:03.998Z,75.14
2018-05-04T03:58:26.196Z,74.76
2018-05-04T04:04:30.651Z,75.24
2018-05-04T04:10:35.036Z,74.52
2018-05-04T04:16:39.457Z,74.49
2018-05-04T04:22:44.591Z,73.83
2018-05-04T04:28:50.721Z,73.91
2018-05-04T04:34:56.001Z,74.57
2018-05-04T04:41:01.998Z,74.25
2018-05-04T04:47:06.439Z,74.32
2018-05-04T04:53:10.834Z,73.81
2018-05-04T04:59:15.933Z,74.25
2018-05-04T05:05:20.749Z,73.32
2018-05-04T05:11:25.323Z,73.19
2018-05-04T05:17:30.485Z,72.58
2018-05-04T05:23:34.856Z,72.14
2018-05-04T05:29:39.966Z,70.74
2018-05-04T05:35:44.334Z,70.59
2018-05-04T05:41:49.620Z,70.77
2018-05-04T05:47:54.445Z,70.52
2018-05-04T05:53:58.833Z,70.40
2018-05-04T06:00:03.196Z,69.01
2018-05-04T06:06:07.611Z,66.79
2018-05-04T06:12:11.949Z,66.04
2018-05-04T06:18:16.390Z,64.61
2018-05-04T06:24:21.584Z,65.38
2018-05-04T06:30:26.725Z,65.55
2018-05-04T06:36:31.115Z,65.31
2018-05-04T06:42:35.498Z,64.45
2018-05-04T06:48:39.869Z,64.10
2018-05-04T06:54:44.248Z,61.25
2018-05-04T07:00:48.719Z,62.25
2018-05-04T07:06:53.189Z,59.54
2018-05-04T07:12:57.582Z,60.09
2018-05-04T07:19:02.836Z,59.86
2018-05-04T07:25:07.223Z,55.25
2018-05-04T07:31:11.593Z,53.18
2018-05-04T07:37:15.957Z,50.81
2018-05-04T07:43:20.639Z,52.82
2018-05-04T07:49:25.802Z,50.19
2018-05-04T07:55:30.171Z,47.73
2018-05-04T08:01:34.529Z,45.77
2018-05-04T08:07:39.663Z,44.98
2018-05-04T08:13:44.015Z,42.66
2018-05-04T08:19:48.395Z,41.08
2018-05-04T08:25:52.829Z,43.79
2018-05-04T08:31:57.250Z,42.09
2018-05-04T08:38:01.618Z,42.17
2018-05-04T08:44:05.990Z,41.99
2018-05-04T08:50:10.344Z,41.83
2018-05-04T08:56:15.497Z,39.64
2018-05-04T09:02:20.077Z,39.67
2018-05-04T09:08:25.263Z,38.37
2018-05-04T09:14:29.624Z,37.10
2018-05-04T09:20:33.986Z,37.23
2018-05-04T09:26:38.360Z,38.14
2018-05-04T09:32:42.733Z,37.23
2018-05-04T09:38:47.102Z,35.45
2018-05-04T09:44:51.472Z,34.04
2018-05-04T09:50:55.960Z,35.78
2018-05-04T09:57:00.328Z,35.75
2018-05-04T10:03:05.561Z,32.79
2018-05-04T10:09:10.014Z,32.32
2018-05-04T10:15:14.376Z,31.00
2018-05-04T10:21:19.123Z,30.51
2018-05-04T10:27:23.906Z,31.80
2018-05-04T10:33:28.334Z,33.40
2018-05-04T10:39:32.723Z,30.37
2018-05-04T10:45:37.172Z,30.60
2018-05-04T10:51:41.566Z,27.73
2018-05-04T10:57:45.946Z,26.23
2018-05-04T11:03:50.951Z,27.04
2018-05-04T11:09:55.393Z,25.01
2018-05-04T11:15:59.863Z,25.53
2018-05-04T11:22:04.294Z,25.98
2018-05-04T11:28:08.684Z,26.23
2018-05-04T11:34:13.036Z,27.53
2018-05-04T11:40:17.534Z,25.25
2018-05-04T11:46:22.968Z,23.53
2018-05-04T11:52:27.350Z,25.06
2018-05-04T11:58:31.719Z,24.64
2018-05-04T12:04:36.111Z,23.63
2018-05-04T12:10:40.642Z,22.83
2018-05-04T12:16:45.179Z,22.47
2018-05-04T12:22:49.864Z,25.35
2018-05-04T12:28:54.275Z,23.37
2018-05-04T12:34:58.630Z,21.78
2018-05-04T12:41:03.070Z,20.62
2018-05-04T12:47:07.487Z,20.35
2018-05-04T12:53:11.817Z,18.54
2018-05-04T12:59:16.190Z,19.17
2018-05-04T13:05:20.835Z,19.08
2018-05-04T13:11:25.299Z,20.50
2018-05-04T13:17:29.756Z,20.58
2018-05-04T13:23:34.842Z,19.73
2018-05-04T13:29:39.216Z,21.41
2018-05-04T13:35:43.572Z,21.17
2018-05-04T13:41:47.938Z,22.69
2018-05-04T13:47:52.367Z,23.02
2018-05-04T13:53:56.827Z,21.63
2018-05-04T14:00:01.260Z,21.95
2018-05-04T14:06:05.620Z,22.59
2018-05-04T14:12:11.079Z,22.09
2018-05-04T14:18:15.438Z,22.47
2018-05-04T14:24:20.072Z,22.12
2018-05-04T14:30:25.223Z,21.83
2018-05-04T14:36:29.577Z,22.14
2018-05-04T14:42:33.938Z,21.73
2018-05-04T14:48:38.407Z,23.08
2018-05-04T14:54:43.539Z,21.25
2018-05-04T15:00:47.891Z,21.76
2018-05-04T15:06:52.412Z,21.07
2018-05-04T15:12:56.897Z,21.10
2018-05-04T15:19:01.262Z,21.05
2018-05-04T15:25:05.720Z,20.60
2018-05-04T15:31:10.009Z,19.77
2018-05-04T15:37:15.356Z,20.71
2018-05-04T15:43:19.796Z,21.68
2018-05-04T15:49:24.267Z,21.76
2018-05-04T15:55:28.665Z,21.67
2018-05-04T16:01:33.795Z,22.04
2018-05-04T16:07:38.151Z,21.18
2018-05-04T16:13:42.604Z,21.50
2018-05-04T16:19:46.895Z,21.20
2018-05-04T16:25:51.291Z,21.76
2018-05-04T16:31:55.718Z,21.18
2018-05-04T16:38:00.093Z,21.46
2018-05-04T16:44:04.474Z,21.88
2018-05-04T16:50:09.593Z,23.89
2018-05-04T16:56:13.975Z,24.03
2018-05-04T17:02:18.352Z,22.34
2018-05-04T17:08:23.300Z,23.11
2018-05-04T17:14:27.677Z,23.47
2018-05-04T17:20:32.067Z,25.88
2018-05-04T17:26:37.197Z,25.70
2018-05-04T17:32:41.599Z,27.37
2018-05-04T17:38:46.004Z,27.26
2018-05-04T17:44:51.710Z,27.56
2018-05-04T17:50:56.940Z,27.90
2018-05-04T17:57:01.287Z,28.07
2018-05-04T18:03:06.430Z,29.29
2018-05-04T18:09:10.795Z,29.67
2018-05-04T18:15:15.272Z,30.68
2018-05-04T18:21:19.841Z,32.21
2018-05-04T18:27:24.260Z,33.66
2018-05-04T18:33:28.835Z,38.51
2018-05-04T18:39:33.228Z,41.30
2018-05-04T18:45:37.648Z,43.98
2018-05-04T18:51:42.010Z,47.04
2018-05-04T18:57:46.467Z,48.66
2018-05-04T19:03:51.641Z,48.16
2018-05-04T19:09:56.004Z,47.19
2018-05-04T19:16:01.881Z,47.92
2018-05-04T19:22:06.248Z,50.35
2018-05-04T19:28:10.776Z,50.77
2018-05-04T19:34:15.151Z,51.47
2018-05-04T19:40:19.682Z,51.98
2018-05-04T19:46:24.238Z,53.19
2018-05-04T19:52:29.023Z,53.58
2018-05-04T19:58:33.544Z,53.45
2018-05-04T20:04:37.938Z,53.96
2018-05-04T20:10:42.363Z,54.58
2018-05-04T20:16:46.762Z,55.23
2018-05-04T20:22:51.469Z,55.71
2018-05-04T20:28:56.073Z,56.14
2018-05-04T20:35:00.408Z,55.97
2018-05-04T20:41:04.800Z,55.96
2018-05-04T20:47:09.152Z,55.87
2018-05-04T20:53:13.509Z,55.78
2018-05-04T20:59:17.889Z,56.00
2018-05-04T21:05:22.393Z,56.64
2018-05-04T21:11:26.780Z,57.81
2018-05-04T21:17:31.211Z,58.31
2018-05-04T21:23:35.685Z,59.29
2018-05-04T21:29:40.045Z,60.76
2018-05-04T21:35:44.416Z,61.21
2018-05-04T21:41:48.789Z,61.19
2018-05-04T21:47:53.467Z,61.66
2018-05-04T21:53:57.852Z,62.23
2018-05-04T22:00:02.231Z,62.16
2018-05-04T22:06:06.621Z,62.62
2018-05-04T22:12:10.987Z,62.52
2018-05-04T22:18:15.355Z,62.51
2018-05-04T22:24:20.000Z,62.48
2018-05-04T22:30:24.636Z,63.00
2018-05-04T22:36:28.981Z,62.49
2018-05-04T22:42:34.111Z,61.65
2018-05-04T22:48:38.479Z,59.49
2018-05-04T22:54:42.935Z,59.52
2018-05-04T23:00:47.317Z,58.22
2018-05-04T23:06:52.495Z,57.20
2018-05-04T23:12:56.868Z,57.69
2018-05-04T23:19:02.135Z,56.69
2018-05-04T23:25:06.549Z,55.73
2018-05-04T23:31:10.984Z,56.12
2018-05-04T23:37:16.135Z,57.30
2018-05-04T23:43:21.330Z,57.35
2018-05-04T23:49:25.710Z,58.31
2018-05-04T23:55:30.085Z,56.97
